Berlin, Germany
Current Conditions -  °F | °C
As of 12:50 AM on Sunday 23 Nov 2014 (Local Time) from EDDT Reporting Station
Clear Clear  
Wind Chill: 35°   Ceiling: Unl
Heat Index: 41°   Visibility: 6mi
Dew Point: 36°   Wind: 10mph
Humidity: 81%   Direction: 130°SE
Pressure: 30.24"   Gusts: NA
Location:  52.52°N, 13.41°E
Report Text: EDDT 222350Z 13009KT CAVOK 05/02 Q1024
Loading
Personal Weather Stations






























Interactive Weather Map New forecast layout! Learn more

10-Day Weather Forecast

Advertisements
Track Severe Weather on mobile